sensor_id;sensor_type;location;lat;lon;timestamp;temperature;humidity
71837;DHT22;59686;51.716;7.016;2022-10-16T00:00:57;15.00;88.70
71837;DHT22;59686;51.716;7.016;2022-10-16T00:03:25;15.00;88.70
71837;DHT22;59686;51.716;7.016;2022-10-16T00:05:51;15.00;88.70
71837;DHT22;59686;51.716;7.016;2022-10-16T00:08:17;15.00;88.70
71837;DHT22;59686;51.716;7.016;2022-10-16T00:10:42;15.00;88.70
71837;DHT22;59686;51.716;7.016;2022-10-16T00:13:08;15.00;88.70
71837;DHT22;59686;51.716;7.016;2022-10-16T00:15:35;15.00;88.70
71837;DHT22;59686;51.716;7.016;2022-10-16T00:18:13;15.00;88.70
71837;DHT22;59686;51.716;7.016;2022-10-16T00:20:39;15.00;88.70
71837;DHT22;59686;51.716;7.016;2022-10-16T00:23:05;14.90;88.60
71837;DHT22;59686;51.716;7.016;2022-10-16T00:25:32;15.00;88.60
71837;DHT22;59686;51.716;7.016;2022-10-16T00:28:01;14.90;88.60
71837;DHT22;59686;51.716;7.016;2022-10-16T00:30:27;14.90;88.60
71837;DHT22;59686;51.716;7.016;2022-10-16T00:32:55;14.90;88.60
71837;DHT22;59686;51.716;7.016;2022-10-16T00:35:21;14.90;88.60
71837;DHT22;59686;51.716;7.016;2022-10-16T00:37:47;14.90;88.50
71837;DHT22;59686;51.716;7.016;2022-10-16T00:40:13;14.80;88.50
71837;DHT22;59686;51.716;7.016;2022-10-16T00:42:38;14.90;88.60
71837;DHT22;59686;51.716;7.016;2022-10-16T00:45:04;14.90;88.60
71837;DHT22;59686;51.716;7.016;2022-10-16T00:47:45;14.90;88.60
71837;DHT22;59686;51.716;7.016;2022-10-16T00:50:30;14.90;88.60
71837;DHT22;59686;51.716;7.016;2022-10-16T00:52:56;14.90;88.60
71837;DHT22;59686;51.716;7.016;2022-10-16T00:55:23;14.90;88.60
71837;DHT22;59686;51.716;7.016;2022-10-16T00:57:50;14.90;88.60
71837;DHT22;59686;51.716;7.016;2022-10-16T01:00:20;14.90;88.60
71837;DHT22;59686;51.716;7.016;2022-10-16T01:02:52;14.90;88.60
71837;DHT22;59686;51.716;7.016;2022-10-16T01:05:18;14.90;88.60
71837;DHT22;59686;51.716;7.016;2022-10-16T01:08:39;14.90;88.60
71837;DHT22;59686;51.716;7.016;2022-10-16T01:11:20;14.90;88.50
71837;DHT22;59686;51.716;7.016;2022-10-16T01:13:54;15.00;89.30
71837;DHT22;59686;51.716;7.016;2022-10-16T01:16:40;14.90;88.50
71837;DHT22;59686;51.716;7.016;2022-10-16T01:19:14;14.90;88.50
71837;DHT22;59686;51.716;7.016;2022-10-16T01:21:43;14.90;88.60
71837;DHT22;59686;51.716;7.016;2022-10-16T01:24:34;14.90;88.50
71837;DHT22;59686;51.716;7.016;2022-10-16T01:37:52;14.90;88.60
71837;DHT22;59686;51.716;7.016;2022-10-16T01:40:20;14.80;88.50
71837;DHT22;59686;51.716;7.016;2022-10-16T01:43:16;14.80;88.50
71837;DHT22;59686;51.716;7.016;2022-10-16T01:45:45;14.80;88.50
71837;DHT22;59686;51.716;7.016;2022-10-16T01:48:17;14.90;88.60
71837;DHT22;59686;51.716;7.016;2022-10-16T01:50:44;14.80;88.50
71837;DHT22;59686;51.716;7.016;2022-10-16T01:53:15;14.80;88.50
71837;DHT22;59686;51.716;7.016;2022-10-16T01:55:45;14.80;88.50
71837;DHT22;59686;51.716;7.016;2022-10-16T01:58:14;14.70;88.40
71837;DHT22;59686;51.716;7.016;2022-10-16T02:00:46;14.80;88.50
71837;DHT22;59686;51.716;7.016;2022-10-16T02:03:16;14.80;88.40
71837;DHT22;59686;51.716;7.016;2022-10-16T02:08:15;14.80;88.50
71837;DHT22;59686;51.716;7.016;2022-10-16T02:10:41;14.80;88.40
71837;DHT22;59686;51.716;7.016;2022-10-16T02:13:11;14.90;88.50
71837;DHT22;59686;51.716;7.016;2022-10-16T02:15:38;14.80;88.40
71837;DHT22;59686;51.716;7.016;2022-10-16T02:18:07;14.80;88.40
71837;DHT22;59686;51.716;7.016;2022-10-16T02:20:45;14.80;88.40
71837;DHT22;59686;51.716;7.016;2022-10-16T02:23:19;14.80;88.40
71837;DHT22;59686;51.716;7.016;2022-10-16T02:25:47;14.80;88.40
71837;DHT22;59686;51.716;7.016;2022-10-16T02:28:17;14.80;88.40
71837;DHT22;59686;51.716;7.016;2022-10-16T02:31:00;14.70;88.30
71837;DHT22;59686;51.716;7.016;2022-10-16T02:33:28;14.80;88.30
71837;DHT22;59686;51.716;7.016;2022-10-16T02:35:55;14.90;88.50
71837;DHT22;59686;51.716;7.016;2022-10-16T02:38:22;14.80;88.40
71837;DHT22;59686;51.716;7.016;2022-10-16T02:40:48;14.80;88.40
71837;DHT22;59686;51.716;7.016;2022-10-16T02:43:14;14.80;88.40
71837;DHT22;59686;51.716;7.016;2022-10-16T02:45:51;14.80;88.40
71837;DHT22;59686;51.716;7.016;2022-10-16T02:48:16;14.80;88.40
71837;DHT22;59686;51.716;7.016;2022-10-16T02:50:42;14.80;88.50
71837;DHT22;59686;51.716;7.016;2022-10-16T02:53:07;14.80;88.50
71837;DHT22;59686;51.716;7.016;2022-10-16T02:55:33;14.70;88.40
71837;DHT22;59686;51.716;7.016;2022-10-16T02:57:59;14.80;88.40
71837;DHT22;59686;51.716;7.016;2022-10-16T03:00:24;14.80;88.50
71837;DHT22;59686;51.716;7.016;2022-10-16T03:02:50;14.70;88.40
71837;DHT22;59686;51.716;7.016;2022-10-16T03:05:16;14.70;88.40
71837;DHT22;59686;51.716;7.016;2022-10-16T03:07:42;14.70;88.40
71837;DHT22;59686;51.716;7.016;2022-10-16T03:10:08;14.70;88.40
71837;DHT22;59686;51.716;7.016;2022-10-16T03:12:33;14.70;88.40
71837;DHT22;59686;51.716;7.016;2022-10-16T03:14:59;14.70;88.40
71837;DHT22;59686;51.716;7.016;2022-10-16T03:17:25;14.70;88.50
71837;DHT22;59686;51.716;7.016;2022-10-16T03:19:51;14.70;88.50
71837;DHT22;59686;51.716;7.016;2022-10-16T03:22:17;14.70;88.50
71837;DHT22;59686;51.716;7.016;2022-10-16T03:24:42;14.70;88.50
71837;DHT22;59686;51.716;7.016;2022-10-16T03:27:08;14.70;88.40
71837;DHT22;59686;51.716;7.016;2022-10-16T03:29:34;14.70;88.50
71837;DHT22;59686;51.716;7.016;2022-10-16T03:32:03;14.70;88.50
71837;DHT22;59686;51.716;7.016;2022-10-16T03:34:28;14.70;88.50
71837;DHT22;59686;51.716;7.016;2022-10-16T03:36:56;14.70;88.50
71837;DHT22;59686;51.716;7.016;2022-10-16T03:39:22;14.80;88.60
71837;DHT22;59686;51.716;7.016;2022-10-16T03:41:47;14.70;88.50
71837;DHT22;59686;51.716;7.016;2022-10-16T03:44:13;14.70;88.40
71837;DHT22;59686;51.716;7.016;2022-10-16T03:46:39;14.70;88.60
71837;DHT22;59686;51.716;7.016;2022-10-16T03:49:05;14.60;88.40
71837;DHT22;59686;51.716;7.016;2022-10-16T03:51:31;14.70;88.50
71837;DHT22;59686;51.716;7.016;2022-10-16T03:53:56;14.60;88.50
71837;DHT22;59686;51.716;7.016;2022-10-16T03:56:22;14.70;88.50
71837;DHT22;59686;51.716;7.016;2022-10-16T03:58:48;14.60;88.50
71837;DHT22;59686;51.716;7.016;2022-10-16T04:01:14;14.60;88.50
71837;DHT22;59686;51.716;7.016;2022-10-16T04:03:39;14.60;89.30
71837;DHT22;59686;51.716;7.016;2022-10-16T04:06:05;14.70;88.50
71837;DHT22;59686;51.716;7.016;2022-10-16T04:08:31;14.70;88.60
71837;DHT22;59686;51.716;7.016;2022-10-16T04:10:59;14.60;88.50
71837;DHT22;59686;51.716;7.016;2022-10-16T04:13:25;14.60;88.50
71837;DHT22;59686;51.716;7.016;2022-10-16T04:15:50;14.60;88.50
71837;DHT22;59686;51.716;7.016;2022-10-16T04:18:16;14.60;88.50
71837;DHT22;59686;51.716;7.016;2022-10-16T04:20:41;14.60;88.50
71837;DHT22;59686;51.716;7.016;2022-10-16T04:23:07;14.60;88.50
71837;DHT22;59686;51.716;7.016;2022-10-16T04:25:33;14.60;88.50
71837;DHT22;59686;51.716;7.016;2022-10-16T04:27:58;14.60;88.50
71837;DHT22;59686;51.716;7.016;2022-10-16T04:30:24;14.60;88.50
71837;DHT22;59686;51.716;7.016;2022-10-16T04:32:51;14.60;88.60
71837;DHT22;59686;51.716;7.016;2022-10-16T04:35:21;14.60;88.50
71837;DHT22;59686;51.716;7.016;2022-10-16T04:37:47;14.70;88.60
71837;DHT22;59686;51.716;7.016;2022-10-16T04:40:13;14.60;88.50
71837;DHT22;59686;51.716;7.016;2022-10-16T04:42:47;14.60;88.50
71837;DHT22;59686;51.716;7.016;2022-10-16T04:45:13;14.50;88.40
71837;DHT22;59686;51.716;7.016;2022-10-16T04:47:38;14.60;88.50
71837;DHT22;59686;51.716;7.016;2022-10-16T04:50:04;14.60;88.50
71837;DHT22;59686;51.716;7.016;2022-10-16T04:52:30;14.60;88.50
71837;DHT22;59686;51.716;7.016;2022-10-16T04:54:57;14.60;88.50
71837;DHT22;59686;51.716;7.016;2022-10-16T04:57:26;14.60;88.50
71837;DHT22;59686;51.716;7.016;2022-10-16T04:59:52;14.60;88.60
71837;DHT22;59686;51.716;7.016;2022-10-16T05:02:18;14.60;88.50
71837;DHT22;59686;51.716;7.016;2022-10-16T05:04:48;14.60;88.50
71837;DHT22;59686;51.716;7.016;2022-10-16T05:07:13;14.50;88.40
71837;DHT22;59686;51.716;7.016;2022-10-16T05:09:39;14.60;88.50
71837;DHT22;59686;51.716;7.016;2022-10-16T05:12:05;14.60;88.50
71837;DHT22;59686;51.716;7.016;2022-10-16T05:14:30;14.50;88.40
71837;DHT22;59686;51.716;7.016;2022-10-16T05:16:57;14.60;88.60
71837;DHT22;59686;51.716;7.016;2022-10-16T05:19:22;14.60;88.50
71837;DHT22;59686;51.716;7.016;2022-10-16T05:21:48;14.60;88.60
71837;DHT22;59686;51.716;7.016;2022-10-16T05:24:14;14.60;88.50
71837;DHT22;59686;51.716;7.016;2022-10-16T05:26:39;14.50;88.50
71837;DHT22;59686;51.716;7.016;2022-10-16T05:29:05;14.60;88.60
71837;DHT22;59686;51.716;7.016;2022-10-16T05:31:30;14.60;88.50
71837;DHT22;59686;51.716;7.016;2022-10-16T05:33:59;14.60;88.60
71837;DHT22;59686;51.716;7.016;2022-10-16T05:36:25;14.50;88.50
71837;DHT22;59686;51.716;7.016;2022-10-16T05:38:51;14.50;88.40
71837;DHT22;59686;51.716;7.016;2022-10-16T05:41:17;14.60;88.60
71837;DHT22;59686;51.716;7.016;2022-10-16T05:43:50;14.60;88.50
71837;DHT22;59686;51.716;7.016;2022-10-16T05:46:16;14.50;88.50
71837;DHT22;59686;51.716;7.016;2022-10-16T05:48:42;14.50;88.50
71837;DHT22;59686;51.716;7.016;2022-10-16T05:51:10;14.50;88.50
71837;DHT22;59686;51.716;7.016;2022-10-16T05:53:38;14.60;88.60
71837;DHT22;59686;51.716;7.016;2022-10-16T05:56:05;14.50;88.40
71837;DHT22;59686;51.716;7.016;2022-10-16T05:58:33;14.50;88.50
71837;DHT22;59686;51.716;7.016;2022-10-16T06:01:02;14.50;88.50
71837;DHT22;59686;51.716;7.016;2022-10-16T06:03:28;14.50;88.40
71837;DHT22;59686;51.716;7.016;2022-10-16T06:05:54;14.50;88.40
71837;DHT22;59686;51.716;7.016;2022-10-16T06:08:21;14.50;88.50
71837;DHT22;59686;51.716;7.016;2022-10-16T06:10:47;14.50;88.40
71837;DHT22;59686;51.716;7.016;2022-10-16T06:13:13;14.50;88.40
71837;DHT22;59686;51.716;7.016;2022-10-16T06:15:40;14.50;88.40
71837;DHT22;59686;51.716;7.016;2022-10-16T06:18:10;14.50;88.40
71837;DHT22;59686;51.716;7.016;2022-10-16T06:20:37;14.40;88.40
71837;DHT22;59686;51.716;7.016;2022-10-16T06:23:03;14.50;88.50
71837;DHT22;59686;51.716;7.016;2022-10-16T06:25:30;14.50;88.50
71837;DHT22;59686;51.716;7.016;2022-10-16T06:27:56;14.40;88.50
71837;DHT22;59686;51.716;7.016;2022-10-16T06:30:22;14.50;88.50
71837;DHT22;59686;51.716;7.016;2022-10-16T06:32:47;14.50;88.50
71837;DHT22;59686;51.716;7.016;2022-10-16T06:35:13;14.60;88.60
71837;DHT22;59686;51.716;7.016;2022-10-16T06:37:39;14.40;88.40
71837;DHT22;59686;51.716;7.016;2022-10-16T06:40:05;14.50;88.50
71837;DHT22;59686;51.716;7.016;2022-10-16T06:42:30;14.50;88.50
71837;DHT22;59686;51.716;7.016;2022-10-16T06:44:56;14.50;88.40
71837;DHT22;59686;51.716;7.016;2022-10-16T06:47:23;14.50;88.40
71837;DHT22;59686;51.716;7.016;2022-10-16T06:49:49;14.50;88.40
71837;DHT22;59686;51.716;7.016;2022-10-16T06:52:14;14.60;89.30
71837;DHT22;59686;51.716;7.016;2022-10-16T06:54:40;14.50;88.40
71837;DHT22;59686;51.716;7.016;2022-10-16T06:57:05;14.50;88.50
71837;DHT22;59686;51.716;7.016;2022-10-16T06:59:31;14.50;88.40
71837;DHT22;59686;51.716;7.016;2022-10-16T07:01:57;14.50;88.40
71837;DHT22;59686;51.716;7.016;2022-10-16T07:04:22;14.60;88.60
71837;DHT22;59686;51.716;7.016;2022-10-16T07:06:48;14.40;88.40
71837;DHT22;59686;51.716;7.016;2022-10-16T07:09:14;14.50;88.40
71837;DHT22;59686;51.716;7.016;2022-10-16T07:11:40;14.50;88.40
71837;DHT22;59686;51.716;7.016;2022-10-16T07:14:16;14.50;88.40
71837;DHT22;59686;51.716;7.016;2022-10-16T07:16:42;14.50;88.50
71837;DHT22;59686;51.716;7.016;2022-10-16T07:19:08;14.50;88.50
71837;DHT22;59686;51.716;7.016;2022-10-16T07:21:34;14.50;88.60
71837;DHT22;59686;51.716;7.016;2022-10-16T07:24:05;14.40;88.40
71837;DHT22;59686;51.716;7.016;2022-10-16T07:26:37;14.50;88.50
71837;DHT22;59686;51.716;7.016;2022-10-16T07:29:05;14.50;88.50
71837;DHT22;59686;51.716;7.016;2022-10-16T07:31:30;14.50;88.50
71837;DHT22;59686;51.716;7.016;2022-10-16T07:33:58;14.50;88.40
71837;DHT22;59686;51.716;7.016;2022-10-16T07:36:24;14.40;88.40
71837;DHT22;59686;51.716;7.016;2022-10-16T07:38:50;14.50;88.50
71837;DHT22;59686;51.716;7.016;2022-10-16T07:41:18;14.50;88.50
71837;DHT22;59686;51.716;7.016;2022-10-16T07:43:48;14.50;88.60
71837;DHT22;59686;51.716;7.016;2022-10-16T07:46:15;14.50;88.50
71837;DHT22;59686;51.716;7.016;2022-10-16T07:48:42;14.50;88.60
71837;DHT22;59686;51.716;7.016;2022-10-16T07:51:11;14.50;88.40
71837;DHT22;59686;51.716;7.016;2022-10-16T07:53:37;14.50;88.50
71837;DHT22;59686;51.716;7.016;2022-10-16T07:56:05;14.50;88.90
71837;DHT22;59686;51.716;7.016;2022-10-16T07:58:32;14.60;88.90
71837;DHT22;59686;51.716;7.016;2022-10-16T08:00:59;14.60;88.70
71837;DHT22;59686;51.716;7.016;2022-10-16T08:03:28;14.60;88.60
71837;DHT22;59686;51.716;7.016;2022-10-16T08:05:53;14.60;88.50
71837;DHT22;59686;51.716;7.016;2022-10-16T08:08:22;14.60;89.10
71837;DHT22;59686;51.716;7.016;2022-10-16T08:10:47;14.60;90.30
71837;DHT22;59686;51.716;7.016;2022-10-16T08:13:13;14.60;90.40
71837;DHT22;59686;51.716;7.016;2022-10-16T08:15:41;14.60;90.40
71837;DHT22;59686;51.716;7.016;2022-10-16T08:18:10;14.70;90.30
71837;DHT22;59686;51.716;7.016;2022-10-16T08:20:36;14.70;90.80
71837;DHT22;59686;51.716;7.016;2022-10-16T08:23:02;14.70;90.80
71837;DHT22;59686;51.716;7.016;2022-10-16T08:25:28;14.80;90.20
71837;DHT22;59686;51.716;7.016;2022-10-16T08:27:54;14.90;89.90
71837;DHT22;59686;51.716;7.016;2022-10-16T08:30:21;14.80;89.50
71837;DHT22;59686;51.716;7.016;2022-10-16T08:32:47;14.90;89.40
71837;DHT22;59686;51.716;7.016;2022-10-16T08:35:14;14.90;89.30
71837;DHT22;59686;51.716;7.016;2022-10-16T08:37:40;14.90;89.20
71837;DHT22;59686;51.716;7.016;2022-10-16T08:40:11;14.90;89.20
71837;DHT22;59686;51.716;7.016;2022-10-16T08:50:53;14.80;89.10
71837;DHT22;59686;51.716;7.016;2022-10-16T08:53:38;14.80;89.10
71837;DHT22;59686;51.716;7.016;2022-10-16T08:56:06;14.80;89.10
71837;DHT22;59686;51.716;7.016;2022-10-16T08:58:33;14.80;89.00
71837;DHT22;59686;51.716;7.016;2022-10-16T09:01:00;14.80;89.00
71837;DHT22;59686;51.716;7.016;2022-10-16T09:06:10;14.80;88.90
71837;DHT22;59686;51.716;7.016;2022-10-16T09:08:49;14.80;88.80
71837;DHT22;59686;51.716;7.016;2022-10-16T09:17:37;14.80;88.50
71837;DHT22;59686;51.716;7.016;2022-10-16T09:20:32;14.80;88.60
71837;DHT22;59686;51.716;7.016;2022-10-16T09:23:38;14.80;88.60
71837;DHT22;59686;51.716;7.016;2022-10-16T09:26:05;14.80;88.50
71837;DHT22;59686;51.716;7.016;2022-10-16T09:28:34;14.80;88.60
71837;DHT22;59686;51.716;7.016;2022-10-16T09:31:00;14.80;88.50
71837;DHT22;59686;51.716;7.016;2022-10-16T09:33:30;14.80;88.50
71837;DHT22;59686;51.716;7.016;2022-10-16T09:35:58;14.90;88.50
71837;DHT22;59686;51.716;7.016;2022-10-16T09:38:26;14.80;88.60
71837;DHT22;59686;51.716;7.016;2022-10-16T09:40:54;14.90;88.40
71837;DHT22;59686;51.716;7.016;2022-10-16T09:46:06;14.90;88.10
71837;DHT22;59686;51.716;7.016;2022-10-16T09:48:53;14.90;88.00
71837;DHT22;59686;51.716;7.016;2022-10-16T09:51:32;15.00;88.00
71837;DHT22;59686;51.716;7.016;2022-10-16T09:54:20;15.00;88.00
71837;DHT22;59686;51.716;7.016;2022-10-16T09:56:45;15.00;88.60
71837;DHT22;59686;51.716;7.016;2022-10-16T09:59:16;15.00;88.00
71837;DHT22;59686;51.716;7.016;2022-10-16T10:01:51;14.90;87.90
71837;DHT22;59686;51.716;7.016;2022-10-16T10:04:21;14.90;87.90
71837;DHT22;59686;51.716;7.016;2022-10-16T10:06:55;14.90;88.00
71837;DHT22;59686;51.716;7.016;2022-10-16T10:14:39;14.90;87.80
71837;DHT22;59686;51.716;7.016;2022-10-16T10:17:23;14.90;87.80
71837;DHT22;59686;51.716;7.016;2022-10-16T10:20:00;15.00;87.90
71837;DHT22;59686;51.716;7.016;2022-10-16T10:22:40;14.90;87.80
71837;DHT22;59686;51.716;7.016;2022-10-16T10:33:25;15.00;87.30
71837;DHT22;59686;51.716;7.016;2022-10-16T10:38:52;15.10;86.90
71837;DHT22;59686;51.716;7.016;2022-10-16T10:44:13;15.10;86.90
71837;DHT22;59686;51.716;7.016;2022-10-16T10:47:05;15.10;86.80
71837;DHT22;59686;51.716;7.016;2022-10-16T10:49:41;15.10;86.80
71837;DHT22;59686;51.716;7.016;2022-10-16T11:08:45;15.20;86.50
71837;DHT22;59686;51.716;7.016;2022-10-16T11:11:44;15.20;86.10
71837;DHT22;59686;51.716;7.016;2022-10-16T11:14:19;15.30;85.90
71837;DHT22;59686;51.716;7.016;2022-10-16T11:16:52;15.30;86.00
71837;DHT22;59686;51.716;7.016;2022-10-16T11:22:24;15.40;85.50
71837;DHT22;59686;51.716;7.016;2022-10-16T11:25:02;15.40;85.20
71837;DHT22;59686;51.716;7.016;2022-10-16T11:27:37;15.50;85.30
71837;DHT22;59686;51.716;7.016;2022-10-16T11:30:16;15.30;85.40
71837;DHT22;59686;51.716;7.016;2022-10-16T11:35:37;15.30;85.30
71837;DHT22;59686;51.716;7.016;2022-10-16T11:38:14;15.40;85.40
71837;DHT22;59686;51.716;7.016;2022-10-16T11:40:43;15.30;85.60
71837;DHT22;59686;51.716;7.016;2022-10-16T11:43:17;15.40;85.70
71837;DHT22;59686;51.716;7.016;2022-10-16T11:45:49;15.30;85.70
71837;DHT22;59686;51.716;7.016;2022-10-16T11:48:33;15.30;85.70
71837;DHT22;59686;51.716;7.016;2022-10-16T11:51:14;15.30;85.70
71837;DHT22;59686;51.716;7.016;2022-10-16T11:56:13;15.20;85.90
71837;DHT22;59686;51.716;7.016;2022-10-16T11:59:00;15.30;85.80
71837;DHT22;59686;51.716;7.016;2022-10-16T12:07:03;15.20;85.80
71837;DHT22;59686;51.716;7.016;2022-10-16T12:09:37;15.30;85.70
71837;DHT22;59686;51.716;7.016;2022-10-16T12:12:03;15.30;85.60
71837;DHT22;59686;51.716;7.016;2022-10-16T12:17:20;15.40;85.20
71837;DHT22;59686;51.716;7.016;2022-10-16T12:20:12;15.30;85.00
71837;DHT22;59686;51.716;7.016;2022-10-16T12:22:52;15.50;85.00
71837;DHT22;59686;51.716;7.016;2022-10-16T12:25:40;15.50;85.00
71837;DHT22;59686;51.716;7.016;2022-10-16T12:30:42;15.50;84.90
71837;DHT22;59686;51.716;7.016;2022-10-16T12:33:28;15.60;85.50
71837;DHT22;59686;51.716;7.016;2022-10-16T12:35:54;15.60;84.60
71837;DHT22;59686;51.716;7.016;2022-10-16T12:38:28;15.60;84.70
71837;DHT22;59686;51.716;7.016;2022-10-16T12:41:06;15.70;84.50
71837;DHT22;59686;51.716;7.016;2022-10-16T12:43:39;15.70;84.50
71837;DHT22;59686;51.716;7.016;2022-10-16T12:48:34;15.70;84.60
71837;DHT22;59686;51.716;7.016;2022-10-16T13:05:52;15.80;84.20
71837;DHT22;59686;51.716;7.016;2022-10-16T13:11:23;15.70;84.20
71837;DHT22;59686;51.716;7.016;2022-10-16T13:17:36;15.80;84.10
71837;DHT22;59686;51.716;7.016;2022-10-16T13:28:05;15.90;84.00
71837;DHT22;59686;51.716;7.016;2022-10-16T13:30:44;15.90;83.70
71837;DHT22;59686;51.716;7.016;2022-10-16T13:33:14;16.00;83.80
71837;DHT22;59686;51.716;7.016;2022-10-16T13:35:50;16.00;83.80
71837;DHT22;59686;51.716;7.016;2022-10-16T13:38:19;16.00;83.80
71837;DHT22;59686;51.716;7.016;2022-10-16T13:43:31;16.00;83.00
71837;DHT22;59686;51.716;7.016;2022-10-16T13:46:04;16.00;83.20
71837;DHT22;59686;51.716;7.016;2022-10-16T13:48:31;16.10;82.60
71837;DHT22;59686;51.716;7.016;2022-10-16T13:51:15;16.60;79.30
71837;DHT22;59686;51.716;7.016;2022-10-16T13:53:41;16.90;77.30
71837;DHT22;59686;51.716;7.016;2022-10-16T13:56:11;17.20;77.10
71837;DHT22;59686;51.716;7.016;2022-10-16T13:58:37;17.10;77.90
71837;DHT22;59686;51.716;7.016;2022-10-16T14:01:06;17.20;78.10
71837;DHT22;59686;51.716;7.016;2022-10-16T14:03:38;17.20;79.20
71837;DHT22;59686;51.716;7.016;2022-10-16T14:06:06;17.20;78.90
71837;DHT22;59686;51.716;7.016;2022-10-16T14:08:43;17.20;78.60
71837;DHT22;59686;51.716;7.016;2022-10-16T14:11:09;17.10;77.80
71837;DHT22;59686;51.716;7.016;2022-10-16T14:13:54;17.10;77.60
71837;DHT22;59686;51.716;7.016;2022-10-16T14:16:25;17.20;77.90
71837;DHT22;59686;51.716;7.016;2022-10-16T14:19:00;17.20;77.80
71837;DHT22;59686;51.716;7.016;2022-10-16T14:21:27;17.20;77.90
71837;DHT22;59686;51.716;7.016;2022-10-16T14:23:54;17.30;78.60
71837;DHT22;59686;51.716;7.016;2022-10-16T14:26:22;17.40;77.70
71837;DHT22;59686;51.716;7.016;2022-10-16T14:29:02;17.30;76.50
71837;DHT22;59686;51.716;7.016;2022-10-16T14:31:32;17.30;77.90
71837;DHT22;59686;51.716;7.016;2022-10-16T14:33:59;17.30;77.40
71837;DHT22;59686;51.716;7.016;2022-10-16T14:36:26;17.20;77.60
71837;DHT22;59686;51.716;7.016;2022-10-16T14:39:04;17.20;78.30
71837;DHT22;59686;51.716;7.016;2022-10-16T14:41:41;17.10;79.10
71837;DHT22;59686;51.716;7.016;2022-10-16T14:44:10;17.10;78.60
71837;DHT22;59686;51.716;7.016;2022-10-16T14:46:40;17.10;78.40
71837;DHT22;59686;51.716;7.016;2022-10-16T14:51:36;17.30;77.20
71837;DHT22;59686;51.716;7.016;2022-10-16T14:54:17;17.20;76.70
71837;DHT22;59686;51.716;7.016;2022-10-16T14:56:54;17.10;77.30
71837;DHT22;59686;51.716;7.016;2022-10-16T15:01:50;17.30;78.60
71837;DHT22;59686;51.716;7.016;2022-10-16T15:04:16;17.20;77.70
71837;DHT22;59686;51.716;7.016;2022-10-16T15:06:47;17.20;78.20
71837;DHT22;59686;51.716;7.016;2022-10-16T15:09:12;17.20;78.10
71837;DHT22;59686;51.716;7.016;2022-10-16T15:11:38;17.20;78.10
71837;DHT22;59686;51.716;7.016;2022-10-16T15:14:05;17.20;78.70
71837;DHT22;59686;51.716;7.016;2022-10-16T15:16:33;17.20;79.20
71837;DHT22;59686;51.716;7.016;2022-10-16T15:19:02;17.10;79.50
71837;DHT22;59686;51.716;7.016;2022-10-16T15:21:30;17.20;81.00
71837;DHT22;59686;51.716;7.016;2022-10-16T15:23:58;17.10;80.50
71837;DHT22;59686;51.716;7.016;2022-10-16T15:26:28;17.10;82.10
71837;DHT22;59686;51.716;7.016;2022-10-16T15:28:54;17.10;79.70
71837;DHT22;59686;51.716;7.016;2022-10-16T15:31:20;17.10;80.50
71837;DHT22;59686;51.716;7.016;2022-10-16T15:33:50;17.10;81.40
71837;DHT22;59686;51.716;7.016;2022-10-16T15:36:25;17.10;81.60
71837;DHT22;59686;51.716;7.016;2022-10-16T15:38:51;17.00;85.40
71837;DHT22;59686;51.716;7.016;2022-10-16T15:41:16;17.00;85.20
71837;DHT22;59686;51.716;7.016;2022-10-16T15:43:42;17.00;83.60
71837;DHT22;59686;51.716;7.016;2022-10-16T15:46:11;17.00;84.30
71837;DHT22;59686;51.716;7.016;2022-10-16T15:48:37;17.00;84.90
71837;DHT22;59686;51.716;7.016;2022-10-16T15:51:07;16.90;86.10
71837;DHT22;59686;51.716;7.016;2022-10-16T15:53:33;16.80;86.10
71837;DHT22;59686;51.716;7.016;2022-10-16T15:56:06;16.80;86.60
71837;DHT22;59686;51.716;7.016;2022-10-16T15:58:32;16.80;87.00
71837;DHT22;59686;51.716;7.016;2022-10-16T16:00:59;16.90;86.60
71837;DHT22;59686;51.716;7.016;2022-10-16T16:03:30;16.80;85.60
71837;DHT22;59686;51.716;7.016;2022-10-16T16:05:55;16.70;85.20
71837;DHT22;59686;51.716;7.016;2022-10-16T16:08:21;16.70;84.90
71837;DHT22;59686;51.716;7.016;2022-10-16T16:11:01;16.80;84.90
71837;DHT22;59686;51.716;7.016;2022-10-16T16:13:27;16.70;84.70
71837;DHT22;59686;51.716;7.016;2022-10-16T16:15:53;16.70;84.50
71837;DHT22;59686;51.716;7.016;2022-10-16T16:18:19;16.70;84.30
71837;DHT22;59686;51.716;7.016;2022-10-16T16:20:44;16.60;84.10
71837;DHT22;59686;51.716;7.016;2022-10-16T16:23:10;16.70;84.20
71837;DHT22;59686;51.716;7.016;2022-10-16T16:25:43;16.60;84.00
71837;DHT22;59686;51.716;7.016;2022-10-16T16:28:08;16.70;84.00
71837;DHT22;59686;51.716;7.016;2022-10-16T16:30:36;16.60;83.80
71837;DHT22;59686;51.716;7.016;2022-10-16T16:33:02;16.60;83.80
71837;DHT22;59686;51.716;7.016;2022-10-16T16:35:28;16.60;83.80
71837;DHT22;59686;51.716;7.016;2022-10-16T16:37:54;16.60;83.70
71837;DHT22;59686;51.716;7.016;2022-10-16T16:40:20;16.60;83.70
71837;DHT22;59686;51.716;7.016;2022-10-16T16:42:48;16.60;83.60
71837;DHT22;59686;51.716;7.016;2022-10-16T16:45:13;16.70;83.80
71837;DHT22;59686;51.716;7.016;2022-10-16T16:47:39;16.60;83.70
71837;DHT22;59686;51.716;7.016;2022-10-16T16:50:06;16.60;83.70
71837;DHT22;59686;51.716;7.016;2022-10-16T16:52:33;16.60;83.80
71837;DHT22;59686;51.716;7.016;2022-10-16T16:54:59;16.70;83.90
71837;DHT22;59686;51.716;7.016;2022-10-16T16:57:25;16.60;83.80
71837;DHT22;59686;51.716;7.016;2022-10-16T16:59:51;16.60;83.90
71837;DHT22;59686;51.716;7.016;2022-10-16T17:02:17;16.70;83.90
71837;DHT22;59686;51.716;7.016;2022-10-16T17:04:48;16.70;83.90
71837;DHT22;59686;51.716;7.016;2022-10-16T17:07:13;16.60;83.80
71837;DHT22;59686;51.716;7.016;2022-10-16T17:09:39;16.60;83.80
71837;DHT22;59686;51.716;7.016;2022-10-16T17:12:04;16.60;83.90
71837;DHT22;59686;51.716;7.016;2022-10-16T17:14:30;16.80;84.00
71837;DHT22;59686;51.716;7.016;2022-10-16T17:16:56;16.70;84.00
71837;DHT22;59686;51.716;7.016;2022-10-16T17:19:24;16.70;84.00
71837;DHT22;59686;51.716;7.016;2022-10-16T17:21:50;16.70;84.00
71837;DHT22;59686;51.716;7.016;2022-10-16T17:24:16;16.70;84.00
71837;DHT22;59686;51.716;7.016;2022-10-16T17:26:44;16.70;84.00
71837;DHT22;59686;51.716;7.016;2022-10-16T17:29:13;16.70;84.10
71837;DHT22;59686;51.716;7.016;2022-10-16T17:31:40;16.70;84.10
71837;DHT22;59686;51.716;7.016;2022-10-16T17:34:07;16.70;84.20
71837;DHT22;59686;51.716;7.016;2022-10-16T17:36:36;16.70;84.20
71837;DHT22;59686;51.716;7.016;2022-10-16T17:39:05;16.70;84.20
71837;DHT22;59686;51.716;7.016;2022-10-16T17:41:31;16.70;84.10
71837;DHT22;59686;51.716;7.016;2022-10-16T17:43:57;16.70;84.10
71837;DHT22;59686;51.716;7.016;2022-10-16T17:46:23;16.70;84.10
71837;DHT22;59686;51.716;7.016;2022-10-16T17:48:52;16.80;84.10
71837;DHT22;59686;51.716;7.016;2022-10-16T17:51:26;16.70;84.10